Terminal Aerodrome Forecast
Issued by NWS Detroit/Pontiac, MI

Home | Current Version | Previous Version | Text Only | Print | Product List | Glossary On
Versions: 1 2 3 4 5 6 7 8 9 10 11 12 13 14 15 16 17 18
000
FTUS43 KDTX 291122
TAFFNT
TAF
KFNT 291122Z 2912/3012 03009KT P6SM SCT025 OVC040
     FM291700 04010KT P6SM BKN080
     FM292100 06012KT 6SM -RA OVC040
     FM300100 06014G21KT 6SM -RA SCT025 OVC040
     FM300500 06014G21KT 4SM -RA BKN018 OVC025=

USA.gov is the U.S. government's official web portal to all federal, state and local government web resources and services.